Time;durP1;ratioP1;P1;durP2;ratioP2;P2;SDS_P1;SDS_P2;PMS_P1;PMS_P2;Temp;Humidity;BMP_temperature;BMP_pressure;BME280_temperature;BME280_humidity;BME280_pressure;Samples;Min_cycle;Max_cycle;Signal;HPM_P1;HPM_P2
2023/09/13 00:00:39;;;;;;;1.47;0.93;;;;;20.70;95931.00;;;;5058595;28;20239;-63
2023/09/13 00:03:06;;;;;;;0.80;0.80;;;;;20.70;95933.00;;;;5058510;28;20219;-63
2023/09/13 00:05:35;;;;;;;0.83;0.83;;;;;20.60;95934.00;;;;5058491;28;20314;-63
2023/09/13 00:08:05;;;;;;;1.17;1.17;;;;;20.50;95946.00;;;;5058194;28;20528;-62
2023/09/13 00:10:35;;;;;;;0.97;0.97;;;;;20.40;95948.00;;;;5057943;28;20234;-62
2023/09/13 00:13:02;;;;;;;1.02;1.02;;;;;20.10;95955.00;;;;5057936;28;20199;-63
2023/09/13 00:15:29;;;;;;;0.83;0.83;;;;;20.10;95941.00;;;;5058241;28;20216;-63
2023/09/13 00:17:57;;;;;;;1.30;1.20;;;;;20.00;95943.00;;;;5058232;28;20208;-63
2023/09/13 00:20:24;;;;;;;0.90;0.90;;;;;19.70;95927.00;;;;5058851;28;20200;-63
2023/09/13 00:22:53;;;;;;;0.70;0.70;;;;;19.70;95918.00;;;;5058204;28;20242;-63
2023/09/13 00:25:23;;;;;;;0.60;0.60;;;;;19.80;95897.00;;;;5057923;28;20211;-63
2023/09/13 00:27:50;;;;;;;0.70;0.70;;;;;19.80;95891.00;;;;5057952;28;20196;-62
2023/09/13 00:30:21;;;;;;;0.63;0.63;;;;;19.80;95890.00;;;;5058589;28;20263;-63
2023/09/13 00:32:48;;;;;;;1.23;1.13;;;;;19.70;95886.00;;;;5058211;28;20195;-63
2023/09/13 00:35:18;;;;;;;0.93;0.93;;;;;19.70;95881.00;;;;5058233;28;20212;-63
2023/09/13 00:38:08;;;;;;;1.30;1.20;;;;;19.60;95891.00;;;;5040205;28;20249;-63
2023/09/13 00:40:40;;;;;;;1.43;1.30;;;;;19.70;95891.00;;;;5058669;28;20188;-63
2023/09/13 00:43:10;;;;;;;0.70;0.70;;;;;19.60;95894.00;;;;5057967;28;20200;-62
2023/09/13 00:45:41;;;;;;;0.83;0.83;;;;;19.60;95898.00;;;;5057748;28;20199;-63
2023/09/13 00:48:10;;;;;;;1.17;1.07;;;;;19.50;95882.00;;;;5058255;28;20188;-63
2023/09/13 00:50:39;;;;;;;0.60;0.60;;;;;19.50;95892.00;;;;5057972;28;20189;-63
2023/09/13 00:53:09;;;;;;;0.83;0.83;;;;;19.50;95879.00;;;;5057794;28;20192;-63
2023/09/13 00:55:38;;;;;;;2.70;1.83;;;;;19.40;95878.00;;;;5057724;28;20184;-63
2023/09/13 00:58:06;;;;;;;0.60;0.60;;;;;19.30;95883.00;;;;5057694;28;20294;-63
2023/09/13 01:00:34;;;;;;;1.87;1.33;;;;;19.10;95882.00;;;;5039795;28;20192;-63
2023/09/13 01:03:03;;;;;;;1.47;1.37;;;;;19.20;95882.00;;;;5057221;28;20220;-63
2023/09/13 01:05:30;;;;;;;0.83;0.83;;;;;19.10;95886.00;;;;5057157;28;20310;-63
2023/09/13 01:07:58;;;;;;;1.00;1.00;;;;;19.20;95897.00;;;;5056301;28;20192;-62
2023/09/13 01:10:26;;;;;;;1.33;1.23;;;;;19.20;95898.00;;;;5056026;28;20188;-63
2023/09/13 01:12:54;;;;;;;0.80;0.80;;;;;19.20;95904.00;;;;5055802;28;20196;-62
2023/09/13 01:15:22;;;;;;;0.70;0.70;;;;;18.90;95902.00;;;;5057521;28;20218;-63
2023/09/13 01:18:00;;;;;;;1.60;1.50;;;;;18.90;95896.00;;;;5039596;28;20253;-63
2023/09/13 01:20:37;;;;;;;1.17;1.17;;;;;19.00;95906.00;;;;5039526;28;20739;-63
2023/09/13 01:23:38;;;;;;;0.90;0.90;;;;;18.80;95908.00;;;;5057285;28;20195;-62
2023/09/13 01:26:47;;;;;;;0.70;0.70;;;;;18.90;95911.00;;;;5057034;28;20199;-63
2023/09/13 01:29:18;;;;;;;1.33;1.23;;;;;18.80;95908.00;;;;5057627;28;20263;-62
2023/09/13 01:31:46;;;;;;;2.83;1.50;;;;;18.90;95904.00;;;;5057493;28;20187;-62
2023/09/13 01:34:15;;;;;;;0.73;0.73;;;;;19.00;95904.00;;;;5057123;28;20215;-62
2023/09/13 01:36:42;;;;;;;1.30;1.20;;;;;19.00;95893.00;;;;5057098;28;20215;-62
2023/09/13 01:39:16;;;;;;;0.93;0.93;;;;;19.00;95893.00;;;;5056838;28;20198;-62
2023/09/13 01:41:47;;;;;;;0.90;0.90;;;;;19.10;95887.00;;;;5057432;28;20571;-62
2023/09/13 01:44:17;;;;;;;1.27;1.17;;;;;19.00;95893.00;;;;5057299;28;20220;-62
2023/09/13 01:46:46;;;;;;;0.90;0.90;;;;;18.90;95896.00;;;;5057019;28;20260;-62
2023/09/13 01:49:18;;;;;;;0.90;0.90;;;;;18.70;95892.00;;;;5056653;28;20202;-62
2023/09/13 01:51:46;;;;;;;1.50;1.43;;;;;18.80;95891.00;;;;5056829;28;20184;-62
2023/09/13 01:54:13;;;;;;;1.10;1.10;;;;;18.80;95889.00;;;;5056397;28;20208;-62
2023/09/13 01:56:40;;;;;;;1.20;1.20;;;;;18.90;95879.00;;;;5056445;28;20549;-62
2023/09/13 01:59:08;;;;;;;1.20;1.07;;;;;19.00;95866.00;;;;5056621;28;20572;-62
2023/09/13 02:01:37;;;;;;;1.33;1.30;;;;;19.00;95869.00;;;;5057523;28;20203;-62
2023/09/13 02:04:08;;;;;;;1.37;1.37;;;;;18.90;95858.00;;;;5056667;28;20224;-62
2023/09/13 02:06:37;;;;;;;1.60;1.50;;;;;19.00;95862.00;;;;5056388;28;20190;-62
2023/09/13 02:09:04;;;;;;;1.37;1.27;;;;;18.90;95860.00;;;;5056481;28;20191;-62
2023/09/13 02:11:32;;;;;;;1.03;1.03;;;;;18.90;95850.00;;;;5038372;28;20246;-62
2023/09/13 02:14:00;;;;;;;0.80;0.80;;;;;18.90;95858.00;;;;5056503;28;20788;-62
2023/09/13 02:16:30;;;;;;;0.90;0.90;;;;;18.90;95860.00;;;;5038559;28;20210;-62
2023/09/13 02:19:00;;;;;;;1.57;1.47;;;;;18.70;95857.00;;;;5056088;28;20196;-64
2023/09/13 02:21:28;;;;;;;1.37;1.27;;;;;18.60;95855.00;;;;5056323;28;20188;-62
2023/09/13 02:23:55;;;;;;;1.07;1.07;;;;;18.50;95858.00;;;;5055936;28;20231;-64
2023/09/13 02:26:24;;;;;;;0.73;0.73;;;;;18.40;95856.00;;;;5055898;28;20199;-62
2023/09/13 02:28:51;;;;;;;0.70;0.70;;;;;18.30;95859.00;;;;5056062;28;20200;-61
2023/09/13 02:31:23;;;;;;;0.80;0.80;;;;;18.30;95871.00;;;;5056077;28;20192;-62
2023/09/13 02:33:50;;;;;;;0.93;0.93;;;;;18.30;95869.00;;;;5055886;28;20204;-63
2023/09/13 02:36:19;;;;;;;1.03;1.03;;;;;18.30;95841.00;;;;5055748;28;20192;-63
2023/09/13 02:38:47;;;;;;;1.00;1.00;;;;;18.20;95873.00;;;;5055502;28;20203;-62
2023/09/13 02:41:14;;;;;;;1.17;1.17;;;;;18.20;95882.00;;;;5056025;28;20192;-62
2023/09/13 02:43:45;;;;;;;0.90;0.90;;;;;18.10;95879.00;;;;5055740;28;20269;-62
2023/09/13 02:46:12;;;;;;;1.13;1.13;;;;;18.20;95885.00;;;;5055533;28;20223;-63
2023/09/13 02:48:40;;;;;;;0.97;0.97;;;;;18.20;95889.00;;;;5055808;28;20195;-62
2023/09/13 02:51:13;;;;;;;1.90;1.80;;;;;18.30;95892.00;;;;5055741;28;20602;-62
2023/09/13 02:53:42;;;;;;;1.27;1.17;;;;;18.40;95894.00;;;;5056055;28;20212;-62
2023/09/13 02:56:10;;;;;;;1.10;1.10;;;;;18.40;95893.00;;;;5055660;28;20286;-62
2023/09/13 02:58:38;;;;;;;1.37;1.37;;;;;18.30;95890.00;;;;5055107;28;20208;-62
2023/09/13 03:01:10;;;;;;;1.03;1.03;;;;;18.30;95898.00;;;;5054761;28;20192;-63
2023/09/13 03:03:37;;;;;;;1.33;1.27;;;;;18.30;95908.00;;;;5054941;28;20243;-63
2023/09/13 03:06:11;;;;;;;1.40;1.30;;;;;18.40;95910.00;;;;5055236;28;20195;-63
2023/09/13 03:08:45;;;;;;;1.00;1.00;;;;;18.20;95906.00;;;;5054979;28;20188;-63
2023/09/13 03:11:14;;;;;;;1.33;1.33;;;;;18.50;95917.00;;;;5054951;28;20188;-63
2023/09/13 03:13:42;;;;;;;0.97;0.97;;;;;18.10;95917.00;;;;5054694;28;20204;-62
2023/09/13 03:16:16;;;;;;;1.20;1.20;;;;;17.90;95915.00;;;;5054765;28;20196;-62
2023/09/13 03:18:45;;;;;;;0.93;0.93;;;;;17.80;95907.00;;;;5055651;28;20271;-62
2023/09/13 03:21:13;;;;;;;1.07;1.07;;;;;18.10;95909.00;;;;5037015;28;20207;-63
2023/09/13 03:23:44;;;;;;;0.60;0.60;;;;;18.10;95905.00;;;;5054508;28;20220;-66
2023/09/13 03:26:16;;;;;;;2.27;2.13;;;;;18.10;95912.00;;;;5055376;28;20203;-63
2023/09/13 03:28:45;;;;;;;0.70;0.70;;;;;18.10;95901.00;;;;5055177;28;20190;-63
2023/09/13 03:31:13;;;;;;;1.30;1.20;;;;;18.10;95900.00;;;;5055524;28;20682;-62
2023/09/13 03:33:42;;;;;;;0.90;0.90;;;;;18.10;95900.00;;;;5055999;28;20212;-63
2023/09/13 03:36:09;;;;;;;0.63;0.63;;;;;18.10;95904.00;;;;5037741;28;20571;-62
2023/09/13 03:38:38;;;;;;;1.13;1.13;;;;;18.10;95898.00;;;;5056279;28;20196;-62
2023/09/13 03:41:08;;;;;;;1.57;1.47;;;;;18.20;95898.00;;;;5056112;28;20197;-62
2023/09/13 03:43:35;;;;;;;1.07;1.07;;;;;18.20;95893.00;;;;5054840;28;20225;-62
2023/09/13 03:46:03;;;;;;;0.93;0.93;;;;;18.20;95897.00;;;;5054997;28;20602;-62
2023/09/13 03:48:34;;;;;;;0.73;0.73;;;;;18.20;95901.00;;;;5057056;28;20196;-62
2023/09/13 03:51:02;;;;;;;1.10;1.10;;;;;18.10;95907.00;;;;5058836;28;20191;-62
2023/09/13 03:53:30;;;;;;;0.77;0.77;;;;;18.10;95910.00;;;;5058382;28;20188;-62
2023/09/13 03:55:58;;;;;;;1.23;1.23;;;;;18.10;95910.00;;;;5057841;28;20218;-62
2023/09/13 03:58:28;;;;;;;0.80;0.80;;;;;18.10;95912.00;;;;5058371;28;20200;-62
2023/09/13 04:00:56;;;;;;;1.20;1.10;;;;;18.10;95910.00;;;;5058209;28;20231;-62
2023/09/13 04:03:24;;;;;;;1.53;1.43;;;;;18.20;95904.00;;;;5058129;28;20200;-62
2023/09/13 04:05:51;;;;;;;1.00;1.00;;;;;18.20;95902.00;;;;5058295;28;20673;-62
2023/09/13 04:08:19;;;;;;;1.50;1.40;;;;;18.30;95902.00;;;;5058333;28;20199;-62
2023/09/13 04:10:46;;;;;;;2.33;1.83;;;;;18.40;95901.00;;;;5058091;28;20203;-62
2023/09/13 04:13:13;;;;;;;1.43;1.33;;;;;18.50;95903.00;;;;5058141;28;20241;-62
2023/09/13 04:15:45;;;;;;;1.20;1.13;;;;;18.50;95902.00;;;;5057480;28;20199;-62
2023/09/13 04:18:13;;;;;;;0.80;0.80;;;;;18.50;95904.00;;;;5058047;28;20180;-62
2023/09/13 04:20:42;;;;;;;1.20;1.13;;;;;18.50;95914.00;;;;5057545;28;20192;-62
2023/09/13 04:23:10;;;;;;;0.97;0.97;;;;;18.50;95911.00;;;;5039982;28;20200;-62
2023/09/13 04:25:38;;;;;;;8.00;1.70;;;;;18.70;95905.00;;;;5057891;28;20223;-62
2023/09/13 04:28:06;;;;;;;1.03;1.03;;;;;18.60;95915.00;;;;5058395;28;20192;-62
2023/09/13 04:30:33;;;;;;;8.77;2.20;;;;;18.50;95912.00;;;;5058033;28;20192;-62
2023/09/13 04:33:04;;;;;;;0.93;0.93;;;;;18.60;95912.00;;;;5057598;28;20559;-63
2023/09/13 04:35:34;;;;;;;0.87;0.87;;;;;18.60;95916.00;;;;5057666;28;20729;-63
2023/09/13 04:38:02;;;;;;;1.73;1.63;;;;;18.40;95912.00;;;;5057980;28;20547;-63
2023/09/13 04:40:29;;;;;;;1.17;1.17;;;;;18.20;95916.00;;;;5057521;28;20196;-62
2023/09/13 04:43:19;;;;;;;0.87;0.87;;;;;18.20;95910.00;;;;5057651;28;20229;-63
2023/09/13 04:45:46;;;;;;;1.03;1.03;;;;;18.30;95917.00;;;;5057495;28;20258;-63
2023/09/13 04:48:15;;;;;;;0.87;0.87;;;;;18.30;95923.00;;;;5057428;28;20274;-63
2023/09/13 04:50:42;;;;;;;0.70;0.70;;;;;18.30;95924.00;;;;5057420;28;20638;-62
2023/09/13 04:53:13;;;;;;;1.00;1.00;;;;;18.40;95920.00;;;;5038865;28;20203;-63
2023/09/13 04:55:44;;;;;;;1.23;1.23;;;;;18.10;95929.00;;;;5056694;28;20187;-63
2023/09/13 04:58:12;;;;;;;1.17;1.13;;;;;18.30;95928.00;;;;5056845;28;20258;-63
2023/09/13 05:00:39;;;;;;;1.17;1.17;;;;;18.40;95934.00;;;;5055946;28;20190;-63
2023/09/13 05:03:06;;;;;;;0.90;0.90;;;;;18.40;95929.00;;;;5056758;28;20222;-63
2023/09/13 05:05:35;;;;;;;1.70;1.53;;;;;18.30;95927.00;;;;5057206;28;20216;-63
2023/09/13 05:08:03;;;;;;;2.43;2.23;;;;;18.40;95930.00;;;;5057724;28;20185;-63
2023/09/13 05:10:32;;;;;;;1.23;1.23;;;;;18.40;95935.00;;;;5055725;28;20276;-63
2023/09/13 05:13:03;;;;;;;0.80;0.80;;;;;18.50;95934.00;;;;5055724;28;20192;-63
2023/09/13 05:15:32;;;;;;;1.10;1.10;;;;;18.50;95944.00;;;;5056223;28;20207;-62
2023/09/13 05:18:00;;;;;;;1.07;1.07;;;;;18.50;95939.00;;;;5038982;28;20195;-63
2023/09/13 05:20:27;;;;;;;2.67;1.57;;;;;18.50;95944.00;;;;5056326;28;20200;-62
2023/09/13 05:22:56;;;;;;;1.53;1.43;;;;;18.60;95948.00;;;;5056595;28;20195;-62
2023/09/13 05:25:23;;;;;;;1.47;1.47;;;;;18.70;95944.00;;;;5056237;28;20226;-62
2023/09/13 05:27:51;;;;;;;0.83;0.83;;;;;18.70;95945.00;;;;5056578;28;20196;-62
2023/09/13 05:30:18;;;;;;;0.87;0.87;;;;;18.60;95943.00;;;;5056127;28;20196;-62
2023/09/13 05:32:46;;;;;;;1.00;1.00;;;;;18.50;95950.00;;;;5056479;28;20197;-62
2023/09/13 05:35:16;;;;;;;1.20;1.20;;;;;18.50;95952.00;;;;5056114;28;20298;-62
2023/09/13 05:37:43;;;;;;;1.40;1.37;;;;;18.60;95950.00;;;;5056163;28;20196;-63
2023/09/13 05:40:18;;;;;;;1.40;1.37;;;;;18.50;95960.00;;;;5038055;28;20207;-62
2023/09/13 05:42:47;;;;;;;1.43;1.33;;;;;18.40;95959.00;;;;5056132;28;20689;-62
2023/09/13 05:45:15;;;;;;;1.30;1.30;;;;;18.20;95961.00;;;;5055531;28;20223;-62
2023/09/13 05:47:42;;;;;;;1.80;1.47;;;;;18.20;95964.00;;;;5055911;28;20188;-63
2023/09/13 05:50:12;;;;;;;1.37;1.30;;;;;18.30;95964.00;;;;5055213;28;20196;-62
2023/09/13 05:52:40;;;;;;;1.30;1.30;;;;;18.40;95977.00;;;;5054934;28;20192;-62
2023/09/13 05:55:08;;;;;;;1.07;1.03;;;;;18.50;95984.00;;;;5054550;28;20223;-62
2023/09/13 05:57:37;;;;;;;1.43;1.40;;;;;18.60;95971.00;;;;5054342;28;20192;-62
2023/09/13 06:00:07;;;;;;;0.70;0.70;;;;;18.70;95980.00;;;;5054144;28;20200;-62
2023/09/13 06:02:35;;;;;;;0.80;0.80;;;;;18.80;95979.00;;;;5055083;28;20180;-63
2023/09/13 06:05:03;;;;;;;1.30;1.20;;;;;18.80;95993.00;;;;5054915;28;20220;-62
2023/09/13 06:07:33;;;;;;;0.87;0.87;;;;;18.90;95982.00;;;;5037156;28;20261;-63
2023/09/13 06:10:01;;;;;;;0.60;0.60;;;;;18.80;95989.00;;;;5037775;28;20199;-62
2023/09/13 06:12:30;;;;;;;1.00;1.00;;;;;18.80;95987.00;;;;5055981;28;20199;-62
2023/09/13 06:14:59;;;;;;;1.00;1.00;;;;;18.70;95991.00;;;;5055938;28;20734;-62
2023/09/13 06:17:26;;;;;;;0.93;0.93;;;;;18.50;96004.00;;;;5056415;28;20244;-62
2023/09/13 06:19:54;;;;;;;1.43;1.40;;;;;18.60;96013.00;;;;5038164;28;20204;-62
2023/09/13 06:22:22;;;;;;;0.87;0.87;;;;;18.70;96010.00;;;;5055415;28;20196;-63
2023/09/13 06:24:50;;;;;;;1.10;1.10;;;;;18.80;96009.00;;;;5055214;28;20215;-62
2023/09/13 06:27:17;;;;;;;0.83;0.83;;;;;18.90;96017.00;;;;5055325;28;20203;-61
2023/09/13 06:29:45;;;;;;;1.97;1.87;;;;;18.90;96016.00;;;;5054536;28;20192;-64
2023/09/13 06:32:14;;;;;;;0.90;0.90;;;;;19.00;96004.00;;;;5053811;28;20243;-65
2023/09/13 06:34:44;;;;;;;1.17;1.17;;;;;19.00;96016.00;;;;5035961;28;20556;-65
2023/09/13 06:37:12;;;;;;;0.73;0.73;;;;;19.10;96015.00;;;;5036879;28;20195;-65
2023/09/13 06:39:39;;;;;;;3.93;1.63;;;;;19.10;96018.00;;;;5036486;28;20199;-62
2023/09/13 06:42:07;;;;;;;0.93;0.93;;;;;19.10;96019.00;;;;5037986;28;20196;-62
2023/09/13 06:44:40;;;;;;;1.63;1.53;;;;;19.10;96019.00;;;;5055531;28;20231;-62
2023/09/13 06:47:08;;;;;;;1.97;1.80;;;;;19.00;96024.00;;;;5055194;28;20191;-62
2023/09/13 06:49:38;;;;;;;0.80;0.80;;;;;19.00;96034.00;;;;5055026;28;20192;-62
2023/09/13 06:52:08;;;;;;;1.50;1.40;;;;;19.10;96029.00;;;;5054424;28;20195;-62
2023/09/13 06:54:38;;;;;;;1.63;1.53;;;;;19.00;96031.00;;;;5055008;28;20208;-62
2023/09/13 06:57:08;;;;;;;1.20;1.00;;;;;19.10;96029.00;;;;5056183;28;20192;-62
2023/09/13 06:59:36;;;;;;;1.83;1.73;;;;;19.00;96031.00;;;;5056538;28;20277;-62
2023/09/13 07:02:04;;;;;;;5.33;2.00;;;;;19.00;96029.00;;;;5056256;28;20199;-62
2023/09/13 07:04:37;;;;;;;1.20;1.20;;;;;19.10;96030.00;;;;5056720;28;20216;-62
2023/09/13 07:07:07;;;;;;;1.20;1.20;;;;;19.00;96039.00;;;;5056519;28;20188;-62
2023/09/13 07:09:39;;;;;;;0.80;0.80;;;;;18.90;96042.00;;;;5056607;28;20183;-62
2023/09/13 07:12:07;;;;;;;1.20;1.03;;;;;18.90;96031.00;;;;5055868;28;20289;-62
2023/09/13 07:14:35;;;;;;;1.33;1.33;;;;;18.90;96039.00;;;;5056215;28;20212;-62
2023/09/13 07:17:02;;;;;;;1.63;1.53;;;;;18.90;96044.00;;;;5056187;28;20192;-62
2023/09/13 07:19:31;;;;;;;2.30;2.10;;;;;18.80;96042.00;;;;5038163;28;20211;-62
2023/09/13 07:22:04;;;;;;;1.03;1.03;;;;;18.80;96057.00;;;;5056476;28;20215;-62
2023/09/13 07:24:31;;;;;;;1.33;1.33;;;;;18.90;96056.00;;;;5059950;28;20273;-62
2023/09/13 07:26:59;;;;;;;1.60;1.50;;;;;18.90;96046.00;;;;5060039;28;20290;-62
2023/09/13 07:29:26;;;;;;;1.30;1.30;;;;;19.10;96048.00;;;;5059338;28;20246;-62
2023/09/13 07:31:55;;;;;;;1.00;1.00;;;;;19.10;96048.00;;;;5059776;28;20295;-62
2023/09/13 07:34:26;;;;;;;1.30;1.30;;;;;19.20;96043.00;;;;5059705;28;20234;-62
2023/09/13 07:36:55;;;;;;;0.97;0.97;;;;;19.30;96050.00;;;;5059390;28;20194;-62
2023/09/13 07:39:25;;;;;;;1.37;1.27;;;;;19.50;96052.00;;;;5059673;28;20655;-62
2023/09/13 07:41:57;;;;;;;1.13;1.13;;;;;19.60;96056.00;;;;5060095;28;20697;-62
2023/09/13 07:44:24;;;;;;;0.77;0.77;;;;;19.60;96064.00;;;;5059832;28;20223;-62
2023/09/13 07:46:52;;;;;;;0.70;0.70;;;;;19.60;96060.00;;;;5059309;28;20238;-62
2023/09/13 07:49:19;;;;;;;1.63;1.53;;;;;19.60;96063.00;;;;5059028;28;20194;-62
2023/09/13 07:51:52;;;;;;;1.10;1.10;;;;;19.50;96055.00;;;;5059303;28;20196;-62
2023/09/13 07:54:27;;;;;;;1.73;1.63;;;;;19.50;96049.00;;;;5041232;28;20226;-62
2023/09/13 07:56:54;;;;;;;3.10;1.43;;;;;19.50;96060.00;;;;5059877;28;20185;-62
2023/09/13 07:59:22;;;;;;;1.33;1.23;;;;;19.40;96064.00;;;;5058880;28;20290;-62
2023/09/13 08:01:49;;;;;;;1.03;1.03;;;;;19.40;96068.00;;;;5059196;28;20204;-63
2023/09/13 08:04:18;;;;;;;1.47;1.40;;;;;19.40;96056.00;;;;5059510;28;20261;-62
2023/09/13 08:06:48;;;;;;;0.73;0.73;;;;;19.40;96060.00;;;;5059320;28;20270;-63
2023/09/13 08:09:16;;;;;;;0.80;0.80;;;;;19.40;96059.00;;;;5059233;28;20603;-62
2023/09/13 08:11:47;;;;;;;1.70;1.60;;;;;19.50;96062.00;;;;5059405;28;20279;-62
2023/09/13 08:14:14;;;;;;;1.10;0.93;;;;;19.60;96065.00;;;;5059061;28;20601;-62
2023/09/13 08:16:44;;;;;;;0.60;0.60;;;;;19.70;96083.00;;;;5058674;28;20192;-62
2023/09/13 08:19:12;;;;;;;0.60;0.60;;;;;19.70;96078.00;;;;5059061;28;20196;-62
2023/09/13 08:21:42;;;;;;;0.87;0.87;;;;;19.60;96083.00;;;;5058899;28;20195;-62
2023/09/13 08:24:10;;;;;;;1.10;1.10;;;;;19.60;96092.00;;;;5059142;28;20265;-62
2023/09/13 08:26:37;;;;;;;0.80;0.80;;;;;19.50;96090.00;;;;5058588;28;20219;-62
2023/09/13 08:29:06;;;;;;;0.60;0.60;;;;;19.50;96086.00;;;;5058481;28;20206;-62
2023/09/13 08:31:34;;;;;;;1.50;1.40;;;;;19.50;96085.00;;;;5058850;28;20219;-63
2023/09/13 08:34:01;;;;;;;0.77;0.77;;;;;19.50;96091.00;;;;5058357;28;20238;-62
2023/09/13 08:36:29;;;;;;;0.70;0.70;;;;;19.50;96093.00;;;;5058487;28;20184;-62
2023/09/13 08:38:56;;;;;;;0.97;0.97;;;;;19.60;96096.00;;;;5058142;28;20199;-62
2023/09/13 08:41:24;;;;;;;0.70;0.70;;;;;19.60;96107.00;;;;5058598;28;20223;-62
2023/09/13 08:43:53;;;;;;;0.80;0.80;;;;;19.60;96104.00;;;;5058312;28;20275;-62
2023/09/13 08:46:23;;;;;;;0.80;0.80;;;;;19.60;96103.00;;;;5058889;28;20251;-62
2023/09/13 08:48:52;;;;;;;0.60;0.60;;;;;19.80;96093.00;;;;5058009;28;20204;-61
2023/09/13 08:51:22;;;;;;;0.87;0.87;;;;;20.00;96096.00;;;;5057513;28;20215;-61
2023/09/13 08:53:56;;;;;;;0.93;0.93;;;;;20.20;96092.00;;;;5058751;28;20573;-62
2023/09/13 08:56:24;;;;;;;0.77;0.77;;;;;20.50;96103.00;;;;5057959;28;20239;-62
2023/09/13 08:58:53;;;;;;;0.80;0.80;;;;;20.20;96103.00;;;;5058008;28;20578;-62
2023/09/13 09:01:26;;;;;;;0.90;0.90;;;;;20.20;96111.00;;;;5058535;28;20203;-62
2023/09/13 09:03:54;;;;;;;0.90;0.90;;;;;20.20;96110.00;;;;5058296;28;20247;-62
2023/09/13 09:06:25;;;;;;;0.80;0.80;;;;;20.50;96115.00;;;;5058273;28;20235;-62
2023/09/13 09:08:53;;;;;;;1.23;1.23;;;;;20.30;96108.00;;;;5058486;28;20283;-62
2023/09/13 09:11:25;;;;;;;1.50;1.40;;;;;20.30;96110.00;;;;5057898;28;20241;-62
2023/09/13 09:13:58;;;;;;;0.70;0.70;;;;;20.20;96112.00;;;;5058158;28;20690;-62
2023/09/13 09:16:28;;;;;;;0.70;0.70;;;;;20.20;96120.00;;;;5057775;28;20541;-62
2023/09/13 09:18:57;;;;;;;0.73;0.73;;;;;20.10;96120.00;;;;5057954;28;20195;-62
2023/09/13 09:21:25;;;;;;;1.97;1.67;;;;;20.20;96099.00;;;;5057560;28;20276;-62
2023/09/13 09:23:53;;;;;;;0.87;0.87;;;;;20.30;96125.00;;;;5058134;28;20564;-62
2023/09/13 09:26:22;;;;;;;1.90;1.03;;;;;20.30;96130.00;;;;5058252;28;20362;-62
2023/09/13 09:28:51;;;;;;;1.10;1.10;;;;;20.30;96134.00;;;;5057756;28;20283;-62
2023/09/13 09:31:19;;;;;;;0.60;0.60;;;;;20.40;96141.00;;;;5057808;28;20188;-61
2023/09/13 09:33:48;;;;;;;0.60;0.60;;;;;20.50;96140.00;;;;5057404;28;20234;-61
2023/09/13 09:36:16;;;;;;;1.00;0.90;;;;;20.20;96136.00;;;;5057453;28;20681;-62
2023/09/13 09:38:46;;;;;;;0.83;0.83;;;;;20.20;96142.00;;;;5056984;28;20193;-62
2023/09/13 09:41:13;;;;;;;0.83;0.83;;;;;20.10;96141.00;;;;5057517;28;20271;-62
2023/09/13 09:43:44;;;;;;;0.70;0.70;;;;;20.10;96139.00;;;;5057568;28;20707;-62
2023/09/13 09:46:13;;;;;;;0.85;0.85;;;;;20.20;96133.00;;;;5056203;28;20218;-62
2023/09/13 09:48:41;;;;;;;0.90;0.90;;;;;20.40;96137.00;;;;5057557;28;20200;-62
2023/09/13 09:51:11;;;;;;;0.67;0.67;;;;;20.30;96147.00;;;;5057470;28;20545;-62
2023/09/13 09:53:39;;;;;;;0.50;0.50;;;;;20.50;96134.00;;;;5057349;28;20223;-62
2023/09/13 09:56:07;;;;;;;0.60;0.60;;;;;20.30;96136.00;;;;5057155;28;20271;-62
2023/09/13 09:58:35;;;;;;;0.67;0.67;;;;;20.60;96127.00;;;;5056827;28;20211;-62
2023/09/13 10:01:03;;;;;;;1.23;1.00;;;;;20.70;96136.00;;;;5057276;28;20619;-62
2023/09/13 10:03:34;;;;;;;0.70;0.70;;;;;20.80;96131.00;;;;5057032;28;20203;-62
2023/09/13 10:06:03;;;;;;;1.20;1.20;;;;;20.90;96128.00;;;;5056754;28;20675;-62
2023/09/13 10:08:40;;;;;;;0.60;0.60;;;;;21.00;96129.00;;;;5057388;28;20200;-62
2023/09/13 10:11:08;;;;;;;1.80;0.93;;;;;20.70;96140.00;;;;5056824;28;20176;-61
2023/09/13 10:13:36;;;;;;;1.23;1.23;;;;;20.90;96129.00;;;;5056826;28;20277;-62
2023/09/13 10:16:04;;;;;;;0.60;0.60;;;;;20.80;96138.00;;;;5038528;28;20287;-62
2023/09/13 10:18:39;;;;;;;0.80;0.80;;;;;21.10;96137.00;;;;5056241;28;20714;-62
2023/09/13 10:21:07;;;;;;;0.50;0.50;;;;;21.00;96144.00;;;;5056510;28;20184;-62
2023/09/13 10:23:41;;;;;;;0.93;0.85;;;;;21.20;96141.00;;;;5056532;28;20215;-62
2023/09/13 10:26:11;;;;;;;1.20;1.20;;;;;21.10;96141.00;;;;5056573;28;20271;-62
2023/09/13 10:28:41;;;;;;;0.82;0.82;;;;;21.30;96139.00;;;;5056431;28;20200;-62
2023/09/13 10:31:16;;;;;;;1.58;1.27;;;;;21.40;96138.00;;;;5055409;28;20322;-62
2023/09/13 10:33:50;;;;;;;0.77;0.77;;;;;21.50;96138.00;;;;5057064;28;20235;-62
2023/09/13 10:36:24;;;;;;;0.85;0.85;;;;;21.50;96138.00;;;;5057338;28;20203;-62
2023/09/13 10:39:07;;;;;;;0.87;0.87;;;;;21.40;96134.00;;;;5038920;28;20196;-62
2023/09/13 10:41:41;;;;;;;0.75;0.75;;;;;21.30;96132.00;;;;5056113;28;20184;-61
2023/09/13 10:44:10;;;;;;;1.42;1.05;;;;;21.30;96136.00;;;;5055166;28;20230;-62
2023/09/13 10:46:38;;;;;;;1.00;1.00;;;;;21.20;96131.00;;;;5055743;28;20247;-62
2023/09/13 10:49:06;;;;;;;0.73;0.73;;;;;21.30;96135.00;;;;5055330;28;20660;-62
2023/09/13 10:51:36;;;;;;;0.90;0.90;;;;;21.40;96141.00;;;;5055048;28;20294;-61
2023/09/13 10:54:05;;;;;;;1.75;0.98;;;;;21.50;96139.00;;;;5056534;28;20219;-62
2023/09/13 10:56:34;;;;;;;1.45;1.35;;;;;21.70;96135.00;;;;5055356;28;20184;-64
2023/09/13 10:59:03;;;;;;;1.40;1.30;;;;;21.90;96128.00;;;;5054212;28;20238;-64
2023/09/13 11:01:36;;;;;;;1.17;1.08;;;;;22.10;96123.00;;;;5054112;28;20647;-64
2023/09/13 11:04:06;;;;;;;0.80;0.80;;;;;22.20;96131.00;;;;5053665;28;20236;-65
2023/09/13 11:06:34;;;;;;;0.90;0.90;;;;;22.40;96140.00;;;;5053979;28;20243;-67
2023/09/13 11:09:14;;;;;;;0.80;0.80;;;;;22.30;96146.00;;;;5054146;28;20694;-63
2023/09/13 11:11:47;;;;;;;0.57;0.57;;;;;22.10;96140.00;;;;5054140;28;20188;-63
2023/09/13 11:14:18;;;;;;;0.75;0.75;;;;;22.10;96142.00;;;;5055349;28;20207;-63
2023/09/13 11:16:46;;;;;;;0.85;0.85;;;;;21.90;96145.00;;;;5054668;28;20643;-63
2023/09/13 11:19:15;;;;;;;0.60;0.60;;;;;21.90;96138.00;;;;5055475;28;20687;-63
2023/09/13 11:21:51;;;;;;;1.58;1.45;;;;;22.00;96140.00;;;;5055598;28;20235;-63
2023/09/13 11:24:40;;;;;;;0.63;0.63;;;;;22.20;96140.00;;;;5055027;28;20215;-63
2023/09/13 11:27:13;;;;;;;0.75;0.75;;;;;22.00;96145.00;;;;5055479;28;20216;-63
2023/09/13 11:29:43;;;;;;;1.00;1.00;;;;;22.10;96143.00;;;;5037688;28;20242;-63
2023/09/13 11:32:18;;;;;;;0.68;0.68;;;;;22.40;96135.00;;;;5055835;28;20296;-63
2023/09/13 11:34:46;;;;;;;0.90;0.90;;;;;22.50;96144.00;;;;5037799;28;20243;-63
2023/09/13 11:37:16;;;;;;;0.93;0.90;;;;;22.50;96140.00;;;;5055302;28;20687;-63
2023/09/13 11:39:52;;;;;;;0.52;0.52;;;;;22.00;96138.00;;;;5055631;28;20250;-63
2023/09/13 11:42:27;;;;;;;1.25;1.25;;;;;22.20;96138.00;;;;5055854;28;20180;-63
2023/09/13 11:44:56;;;;;;;0.52;0.52;;;;;22.50;96131.00;;;;5055317;28;20243;-63
2023/09/13 11:47:24;;;;;;;0.52;0.52;;;;;22.60;96132.00;;;;5055522;28;20242;-63
2023/09/13 11:49:55;;;;;;;0.70;0.70;;;;;22.60;96128.00;;;;5055474;28;20253;-63
2023/09/13 11:52:23;;;;;;;0.88;0.88;;;;;22.90;96128.00;;;;5055251;28;20267;-63
2023/09/13 11:54:55;;;;;;;0.90;0.90;;;;;22.50;96128.00;;;;5055044;28;20531;-63
2023/09/13 11:57:23;;;;;;;1.08;1.08;;;;;22.70;96133.00;;;;5054881;28;20192;-63
2023/09/13 11:59:54;;;;;;;0.82;0.82;;;;;22.90;96132.00;;;;5054853;28;20569;-63
2023/09/13 12:02:24;;;;;;;1.02;1.02;;;;;23.00;96132.00;;;;5055317;28;20176;-63
2023/09/13 12:04:53;;;;;;;0.80;0.80;;;;;22.80;96139.00;;;;5055046;28;20220;-63
2023/09/13 12:07:21;;;;;;;1.08;1.08;;;;;22.80;96126.00;;;;5054979;28;20638;-66
2023/09/13 12:09:58;;;;;;;1.10;1.00;;;;;22.50;96134.00;;;;5057543;28;20195;-63
2023/09/13 12:12:26;;;;;;;0.70;0.70;;;;;22.60;96133.00;;;;5040704;28;20192;-63
2023/09/13 12:14:53;;;;;;;0.50;0.50;;;;;22.60;96128.00;;;;5040642;28;20274;-63
2023/09/13 12:17:21;;;;;;;0.38;0.38;;;;;22.60;96133.00;;;;5058606;28;20231;-63
2023/09/13 12:19:49;;;;;;;2.13;1.08;;;;;22.70;96129.00;;;;5058424;28;20256;-63
2023/09/13 12:22:22;;;;;;;0.50;0.50;;;;;22.90;96133.00;;;;5058005;28;20268;-63
2023/09/13 12:24:58;;;;;;;0.50;0.50;;;;;23.10;96120.00;;;;5057837;28;20624;-63
2023/09/13 12:27:26;;;;;;;0.70;0.70;;;;;23.50;96119.00;;;;5057980;28;20608;-63
2023/09/13 12:29:53;;;;;;;0.57;0.57;;;;;23.50;96117.00;;;;5057696;28;20195;-63